Latest Weather Observations for Yeppoon

IDQ60801

Issued at 4:02 pm EST Thursday 2 April 2015 (issued every 30 minutes, with the page automatically refreshed every 10 minutes)

About weather observations | Map of weather stations | Latest weather observations for QLD | Other Formats
Station Details ID: 033294 Name: YEPPOON THE ESPLANADE Lat: -23.14 Lon: 150.75 Height: 5.5 m
Data from the previous 72 hours. | See also: Recent months at Yeppoon
Date/Time
EST
Temp
°C
App
Temp
°C
Dew
Point
Rel
Hum
%
Delta-T
°C
Wind Press
QNH
hPa
Press
MSL
hPa
Rain
since 9 am
mm
Dir
 
Spd
km/h
Gust
km/h
Spd
kts
Gust
kts
02/04:00pm 27.0 27.4 20.9 69 4.0 E 20 24 11 13 1011.9 1011.9 0.2
02/03:30pm 27.4 27.9 21.2 69 4.1 E 20 26 11 14 1011.8 1011.8 0.2
02/03:00pm 27.3 27.7 21.0 68 4.2 E 20 24 11 13 1011.9 1011.9 0.2
02/02:30pm 27.6 28.2 21.3 68 4.2 E 20 26 11 14 1012.0 1012.0 0.2
02/02:00pm 27.2 27.7 20.8 68 4.2 E 19 26 10 14 1012.4 1012.4 0.2
02/01:30pm 27.2 27.8 21.3 70 3.9 E 20 26 11 14 1012.8 1012.8 0.2
02/01:00pm 27.0 27.8 21.3 71 3.8 E 19 24 10 13 1013.1 1013.1 0.2
02/12:30pm 26.9 28.0 21.2 71 3.8 ENE 17 19 9 10 1013.5 1013.5 0.2
02/12:00pm 26.8 27.6 20.7 69 4.0 E 17 22 9 12 1014.0 1014.0 0.2
02/11:30am 26.7 27.2 20.8 70 3.9 E 19 22 10 12 1014.6 1014.6 0.2
02/11:00am 26.6 27.2 21.0 71 3.7 E 19 24 10 13 1015.0 1015.0 0.2
02/10:30am 26.5 27.7 20.7 70 3.8 ESE 15 20 8 11 1015.3 1015.3 0.2
02/10:00am 26.3 27.9 20.8 71 3.6 ESE 13 19 7 10 1015.5 1015.5 0.2
02/09:30am 25.3 26.6 20.9 76 2.9 SSE 15 19 8 10 1015.4 1015.4 0.0
02/09:00am 24.6 25.9 20.8 79 2.5 SSE 15 22 8 12 1015.5 1015.5 2.8
02/08:30am 24.1 25.3 20.6 81 2.3 SSE 15 19 8 10 1015.4 1015.4 2.8
02/08:00am 23.2 25.0 20.4 84 1.8 S 11 17 6 9 1015.4 1015.4 2.8
02/07:30am 22.1 23.1 19.4 85 1.7 S 13 19 7 10 1015.1 1015.1 2.8
02/07:00am 21.2 21.6 19.0 87 1.4 S 15 20 8 11 1014.8 1014.8 2.8
02/06:30am 20.5 21.7 19.1 92 0.9 S 11 17 6 9 1014.6 1014.6 2.8
02/06:00am 20.3 21.0 18.9 92 0.9 S 13 17 7 9 1014.3 1014.3 2.8
02/05:30am 20.4 20.3 18.8 90 1.0 S 17 20 9 11 1014.0 1014.0 2.8
02/05:00am 20.6 20.9 18.8 89 1.1 S 15 22 8 12 1014.1 1014.1 2.8
02/04:30am 20.4 20.7 18.8 90 1.0 S 15 20 8 11 1014.0 1014.0 2.8
02/04:00am 20.4 20.8 19.0 92 0.9 S 15 22 8 12 1013.8 1013.8 2.8
02/03:30am 20.5 21.3 19.1 92 0.9 S 13 19 7 10 1013.9 1013.9 2.8
02/03:00am 20.7 21.6 19.3 92 0.9 S 13 20 7 11 1013.8 1013.8 2.8
02/02:30am 20.9 21.5 19.5 92 0.9 S 15 20 8 11 1013.9 1013.9 2.8
02/02:00am 21.6 23.2 19.9 90 1.1 S 11 17 6 9 1014.3 1014.3 2.8
02/01:30am 21.9 23.1 20.0 89 1.2 S 13 19 7 10 1014.4 1014.4 2.8
02/01:00am 21.9 23.3 20.3 91 1.0 SSE 13 19 7 10 1014.8 1014.8 2.8
02/12:30am 22.0 23.0 20.3 90 1.1 SSE 15 20 8 11 1015.3 1015.3 2.8
02/12:00am 21.9 23.1 20.7 93 0.8 S 15 20 8 11 1015.4 1015.4 2.8
 
Date/Time
EST
Temp
°C
App
Temp
°C
Dew
Point
Rel
Hum
%
Delta-T
°C
Wind Press
QNH
hPa
Press
MSL
hPa
Rain
since 9 am
mm
Dir
 
Spd
km/h
Gust
km/h
Spd
kts
Gust
kts
01/11:30pm 22.0 24.4 20.8 93 0.8 S 9 13 5 7 1015.7 1015.7 2.8
01/11:00pm 22.3 24.4 20.9 92 0.9 S 11 15 6 8 1016.0 1016.0 2.8
01/10:30pm 22.5 23.7 20.6 89 1.2 SE 15 22 8 12 1016.3 1016.3 2.8
01/10:00pm 22.3 23.6 20.9 92 0.9 SSE 15 20 8 11 1016.7 1016.7 2.8
01/09:30pm 21.4 23.9 20.3 93 0.7 SSW 7 11 4 6 1016.7 1016.7 2.8
01/09:00pm 21.6 23.8 20.4 93 0.8 SSE 9 13 5 7 1016.6 1016.6 2.8
01/08:30pm 21.4 23.6 20.3 93 0.7 SSE 9 13 5 7 1016.5 1016.5 2.8
01/08:00pm 21.5 22.9 20.4 93 0.7 SSE 13 20 7 11 1016.6 1016.6 2.8
01/07:30pm 21.8 22.3 20.1 90 1.1 ESE 17 24 9 13 1016.5 1016.5 2.0
01/07:00pm 22.6 20.4 20.8 89 1.2 ENE 33 43 18 23 1016.0 1016.0 1.6
01/06:30pm 23.8 23.8 20.2 80 2.3 ENE 20 28 11 15 1015.4 1015.4 1.2
01/06:00pm 22.7 22.6 20.7 88 1.3 E 22 30 12 16 1015.5 1015.5 1.2
01/05:30pm 23.1 21.3 21.1 88 1.3 E 32 43 17 23 1015.1 1015.1 1.0
01/05:00pm 22.9 24.1 20.7 87 1.4 ESE 15 24 8 13 1015.1 1015.1 1.0
01/04:30pm 21.8 22.6 19.9 89 1.2 SSE 15 20 8 11 1014.8 1014.8 1.0
01/04:00pm 23.3 23.0 20.4 84 1.9 ESE 22 35 12 19 1014.7 1014.7 0.8
01/03:30pm 22.6 23.3 20.4 87 1.4 SE 17 26 9 14 1014.7 1014.7 0.8
01/03:00pm 24.4 24.6 20.6 79 2.5 ESE 20 35 11 19 1014.7 1014.7 0.2
01/02:30pm 23.5 23.2 20.3 82 2.1 ENE 22 28 12 15 1014.9 1014.9 0.2
01/02:00pm 23.4 22.7 20.3 83 2.0 ESE 24 35 13 19 1015.3 1015.3 0.2
01/01:30pm 24.7 24.0 20.2 76 2.9 ESE 24 35 13 19 1015.6 1015.6 0.2
01/01:00pm 24.5 23.3 20.0 76 2.9 ESE 26 39 14 21 1015.8 1015.8 0.2
01/12:30pm 24.9 25.0 20.3 75 3.0 ESE 20 30 11 16 1016.1 1016.1 0.2
01/12:00pm 25.0 25.0 20.1 74 3.2 ESE 20 35 11 19 1016.4 1016.4 0.2
01/11:30am 24.9 24.4 20.8 78 2.7 SE 24 37 13 20 1016.9 1016.9 0.0
01/11:00am 25.0 24.9 20.7 77 2.8 SE 22 32 12 17 1017.0 1017.0 0.0
01/10:30am 24.1 24.5 20.9 82 2.1 SE 20 32 11 17 1017.6 1017.6 0.0
01/10:00am 24.0 24.9 20.8 82 2.1 SSE 17 28 9 15 1017.9 1017.9 0.0
01/09:30am 24.0 24.2 20.5 81 2.3 S 20 28 11 15 1017.8 1017.8 0.0
01/09:00am 23.7 24.2 20.9 84 1.8 SSE 19 26 10 14 1018.1 1018.1 7.2
01/08:30am 23.4 24.7 20.8 85 1.7 SSE 15 22 8 12 1017.7 1017.7 7.2
01/08:00am 23.4 24.6 20.6 84 1.8 SE 15 19 8 10 1017.5 1017.5 7.2
01/07:30am 22.1 24.2 20.9 93 0.8 SSE 11 15 6 8 1017.2 1017.2 7.2
01/07:00am 21.8 21.9 20.4 92 0.9 SE 20 32 11 17 1016.8 1016.8 7.0
01/06:30am 22.3 23.5 20.6 90 1.1 ESE 15 24 8 13 1016.8 1016.8 6.8
01/06:00am 21.8 21.9 20.4 92 0.9 ESE 20 32 11 17 1016.9 1016.9 6.8
01/05:30am 22.1 23.3 20.7 92 0.9 SSE 15 22 8 12 1016.4 1016.4 5.6
01/05:00am 21.7 24.4 20.6 93 0.7 S 7 13 4 7 1016.4 1016.4 5.6
01/04:30am 21.1 22.3 20.0 93 0.7 S 13 17 7 9 1016.1 1016.1 5.6
01/04:00am 21.2 22.3 19.6 90 1.0 S 13 22 7 12 1015.6 1015.6 5.6
01/03:30am 21.4 23.0 20.0 92 0.9 S 11 19 6 10 1015.6 1015.6 5.4
01/03:00am 22.1 24.5 20.9 93 0.8 SSE 9 15 5 8 1015.7 1015.7 5.4
01/02:30am 22.2 23.9 21.0 93 0.8 S 13 17 7 9 1016.3 1016.3 4.8
01/02:00am 22.2 25.2 21.3 95 0.6 SSE 7 11 4 6 1016.7 1016.7 4.8
01/01:30am 22.6 24.4 21.2 92 0.9 SE 13 20 7 11 1017.0 1017.0 3.0
01/01:00am 22.7 25.7 21.2 91 1.0 SE 7 11 4 6 1017.8 1017.8 3.0
01/12:30am 23.2 24.7 21.2 88 1.3 SSE 15 22 8 12 1017.7 1017.7 2.8
01/12:00am 24.4 24.0 19.4 73 3.2 ESE 20 35 11 19 1017.3 1017.3 2.8
 
Date/Time
EST
Temp
°C
App
Temp
°C
Dew
Point
Rel
Hum
%
Delta-T
°C
Wind Press
QNH
hPa
Press
MSL
hPa
Rain
since 9 am
mm
Dir
 
Spd
km/h
Gust
km/h
Spd
kts
Gust
kts
31/11:30pm 24.4 24.1 17.3 64 4.4 SE 15 20 8 11 1017.9 1017.9 2.8
31/11:00pm 25.1 23.8 16.8 60 5.1 ESE 19 30 10 16 1018.1 1018.1 2.8
31/10:30pm 25.3 23.7 15.1 53 6.1 ESE 17 26 9 14 1018.9 1018.9 2.8
31/10:00pm 25.1 23.1 13.9 49 6.6 SE 17 26 9 14 1018.5 1018.5 2.8
31/09:30pm 25.2 22.3 15.0 53 6.1 ESE 24 35 13 19 1018.5 1018.5 2.8
31/09:00pm 24.8 22.0 14.3 52 6.2 ESE 22 32 12 17 1018.9 1018.9 2.8
31/08:49pm 24.7 20.9 14.8 54 5.9 ESE 28 46 15 25 1019.1 1019.1 2.8
31/08:30pm 24.6 19.7 16.4 60 5.0 E 37 52 20 28 1018.8 1018.8 2.8
31/08:00pm 24.7 22.6 21.0 80 2.4 E 33 41 18 22 1018.7 1018.7 2.2
31/07:30pm 24.9 23.1 22.2 85 1.8 E 35 43 19 23 1018.1 1018.1 1.4
31/07:00pm 25.1 23.5 21.5 80 2.4 E 32 39 17 21 1018.2 1018.2 0.0
31/06:30pm 25.8 24.7 21.1 75 3.1 ENE 28 35 15 19 1018.0 1018.0 0.0
31/06:00pm 26.6 24.9 18.1 59 5.4 ESE 24 39 13 21 1017.6 1017.6 0.0
31/05:30pm 26.6 24.4 19.5 65 4.6 E 30 39 16 21 1017.1 1017.1 0.0
31/05:00pm 26.7 25.5 18.5 60 5.2 ESE 22 32 12 17 1016.7 1016.7 0.0
31/04:30pm 26.6 26.0 18.8 62 5.0 ESE 20 30 11 16 1016.4 1016.4 0.0
31/04:00pm 26.6 25.7 19.1 63 4.8 ESE 22 35 12 19 1016.6 1016.6 0.0
31/03:30pm 27.0 25.8 18.3 59 5.5 ESE 22 35 12 19 1016.5 1016.5 0.0
31/03:00pm 27.8 27.5 19.6 61 5.3 ESE 20 33 11 18 1016.4 1016.4 0.0
31/02:30pm 27.3 27.1 19.8 63 4.9 ESE 20 35 11 19 1016.7 1016.7 0.0
31/02:00pm 27.4 26.2 19.2 61 5.3 ESE 24 33 13 18 1016.9 1016.9 0.0
31/01:30pm 27.7 26.9 19.2 60 5.5 ESE 22 33 12 18 1017.3 1017.3 0.0
31/01:00pm 27.6 26.9 19.6 61 5.2 ESE 22 32 12 17 1017.7 1017.7 0.0
31/12:30pm 27.9 27.6 20.3 63 5.0 ESE 22 37 12 20 1018.0 1018.0 0.0
31/12:00pm 27.8 26.2 20.0 62 5.1 E 28 37 15 20 1018.4 1018.4 0.0
31/11:30am 28.2 27.9 20.4 62 5.1 ESE 22 32 12 17 1019.0 1019.0 0.0
31/11:00am 27.5 27.9 21.7 70 3.9 SE 22 32 12 17 1019.3 1019.3 0.0
31/10:30am 27.5 28.3 21.7 70 3.9 SE 20 28 11 15 1019.7 1019.7 0.0
31/10:00am 26.9 27.5 21.3 71 3.7 SE 20 28 11 15 1020.0 1020.0 0.0
31/09:30am 26.2 26.5 21.5 75 3.1 SE 22 32 12 17 1019.9 1019.9 0.0
31/09:00am 25.9 26.5 21.4 76 3.0 SE 20 32 11 17 1019.8 1019.8 0.0
31/08:30am 25.3 25.8 21.2 78 2.7 SSE 20 28 11 15 1019.7 1019.7 0.0
31/08:00am 25.0 26.1 21.2 79 2.5 SE 17 24 9 13 1019.5 1019.5 0.0
31/07:30am 24.5 25.9 21.0 81 2.3 SE 15 20 8 11 1019.3 1019.3 0.0
31/07:00am 23.0 24.8 20.4 85 1.7 S 11 13 6 7 1019.0 1019.0 0.0
31/06:30am 22.3 24.1 20.3 88 1.3 S 11 17 6 9 1018.6 1018.6 0.0
31/06:00am 22.2 24.3 20.2 88 1.3 S 9 13 5 7 1018.3 1018.3 0.0
31/05:30am 22.2 24.2 19.9 87 1.5 S 9 13 5 7 1018.2 1018.2 0.0
31/05:00am 22.3 24.3 20.0 87 1.5 S 9 15 5 8 1018.0 1018.0 0.0
31/04:30am 22.2 24.1 19.7 86 1.6 S 9 13 5 7 1017.9 1017.9 0.0
31/04:00am 22.4 23.8 19.6 84 1.8 S 11 15 6 8 1017.7 1017.7 0.0
31/03:30am 23.2 23.8 19.4 79 2.4 SSE 15 26 8 14 1017.7 1017.7 0.0
31/03:00am 23.2 24.3 19.6 80 2.3 S 13 22 7 12 1017.8 1017.8 0.0
31/02:30am 23.4 23.9 19.3 78 2.6 SSW 15 19 8 10 1018.0 1018.0 0.0
31/02:00am 24.3 26.0 19.3 73 3.2 SSE 9 15 5 8 1018.3 1018.3 0.0
31/01:30am 25.8 25.3 18.6 64 4.6 ESE 19 28 10 15 1018.7 1018.7 0.0
31/01:00am 25.7 25.5 18.6 65 4.5 ESE 17 26 9 14 1019.1 1019.1 0.0
31/12:30am 25.8 25.7 18.7 65 4.5 ESE 17 26 9 14 1019.4 1019.4 0.0
31/12:00am 25.9 25.3 18.5 63 4.7 ESE 19 28 10 15 1019.7 1019.7 0.0
 
Date/Time
EST
Temp
°C
App
Temp
°C
Dew
Point
Rel
Hum
%
Delta-T
°C
Wind Press
QNH
hPa
Press
MSL
hPa
Rain
since 9 am
mm
Dir
 
Spd
km/h
Gust
km/h
Spd
kts
Gust
kts
30/11:30pm 25.9 25.8 18.7 64 4.6 ESE 17 24 9 13 1019.8 1019.8 0.0
30/11:00pm 26.0 26.3 18.8 64 4.6 SE 15 26 8 14 1020.0 1020.0 0.0
30/10:30pm 26.1 25.3 18.0 61 5.1 SE 19 28 10 15 1020.3 1020.3 0.0
30/10:00pm 26.1 25.5 18.5 63 4.8 ESE 19 28 10 15 1020.5 1020.5 0.0
30/09:30pm 26.2 25.5 19.4 66 4.4 E 22 30 12 16 1020.6 1020.6 0.0
30/09:00pm 26.2 24.9 19.0 64 4.6 E 24 35 13 19 1020.5 1020.5 0.0
30/08:30pm 26.3 25.7 18.9 63 4.7 E 20 32 11 17 1020.3 1020.3 0.0
30/08:00pm 26.3 24.9 18.8 63 4.8 ESE 24 33 13 18 1020.1 1020.1 0.0
30/07:30pm 26.4 24.5 18.5 62 5.0 E 26 37 14 20 1019.8 1019.8 0.0
30/07:00pm 26.3 25.5 18.4 61 5.0 ESE 20 33 11 18 1019.5 1019.5 0.0
30/06:30pm 26.5 25.4 17.4 57 5.7 ESE 19 32 10 17 1019.3 1019.3 0.0
30/06:00pm 26.5 26.3 18.6 62 5.0 ESE 17 32 9 17 1019.1 1019.1 0.0
30/05:30pm 26.8 26.3 19.0 62 5.0 ESE 20 30 11 16 1018.8 1018.8 0.0
30/05:00pm 27.1 25.9 19.3 62 5.0 E 24 33 13 18 1018.7 1018.7 0.0
30/04:30pm 27.6 27.5 19.9 63 5.0 ESE 20 35 11 19 1018.5 1018.5 0.0

Other Formats:

Comma delimited format used in spreadsheet applications
http://www.bom.gov.au/fwo/IDQ60801/IDQ60801.94373.axf

JavaScript Object Notation format (JSON) in row-major order
http://www.bom.gov.au/fwo/IDQ60801/IDQ60801.94373.json